sensor_id;sensor_type;location;lat;lon;timestamp;temperature;humidity
2002;DHT22;1003;48.002;7.788;2024-01-10T00:01:49;-2.90;99.90
2002;DHT22;1003;48.002;7.788;2024-01-10T00:04:16;-2.90;99.90
2002;DHT22;1003;48.002;7.788;2024-01-10T00:06:43;-2.80;99.90
2002;DHT22;1003;48.002;7.788;2024-01-10T00:09:11;-2.80;99.90
2002;DHT22;1003;48.002;7.788;2024-01-10T00:11:38;-2.90;99.90
2002;DHT22;1003;48.002;7.788;2024-01-10T00:14:05;-3.00;99.90
2002;DHT22;1003;48.002;7.788;2024-01-10T00:16:32;-2.90;99.90
2002;DHT22;1003;48.002;7.788;2024-01-10T00:18:59;-3.00;99.90
2002;DHT22;1003;48.002;7.788;2024-01-10T00:21:26;-3.10;99.90
2002;DHT22;1003;48.002;7.788;2024-01-10T00:23:55;-3.10;99.90
2002;DHT22;1003;48.002;7.788;2024-01-10T00:26:25;-3.10;99.90
2002;DHT22;1003;48.002;7.788;2024-01-10T00:28:54;-3.10;99.90
2002;DHT22;1003;48.002;7.788;2024-01-10T00:31:21;-3.10;99.90
2002;DHT22;1003;48.002;7.788;2024-01-10T00:33:48;-3.10;99.90
2002;DHT22;1003;48.002;7.788;2024-01-10T00:36:15;-3.10;99.90
2002;DHT22;1003;48.002;7.788;2024-01-10T00:38:42;-3.10;99.90
2002;DHT22;1003;48.002;7.788;2024-01-10T00:41:09;-3.10;99.90
2002;DHT22;1003;48.002;7.788;2024-01-10T00:43:38;-3.10;99.90
2002;DHT22;1003;48.002;7.788;2024-01-10T00:46:05;-3.10;99.90
2002;DHT22;1003;48.002;7.788;2024-01-10T00:48:32;-3.10;99.90
2002;DHT22;1003;48.002;7.788;2024-01-10T00:50:59;-3.10;99.90
2002;DHT22;1003;48.002;7.788;2024-01-10T00:53:26;-3.10;99.90
2002;DHT22;1003;48.002;7.788;2024-01-10T00:55:53;-3.20;99.90
2002;DHT22;1003;48.002;7.788;2024-01-10T00:58:20;-3.20;99.90
2002;DHT22;1003;48.002;7.788;2024-01-10T01:00:48;-3.20;99.90
2002;DHT22;1003;48.002;7.788;2024-01-10T01:03:15;-3.30;99.90
2002;DHT22;1003;48.002;7.788;2024-01-10T01:05:42;-3.30;99.90
2002;DHT22;1003;48.002;7.788;2024-01-10T01:08:09;-3.20;99.90
2002;DHT22;1003;48.002;7.788;2024-01-10T01:10:36;-3.20;99.90
2002;DHT22;1003;48.002;7.788;2024-01-10T01:13:03;-3.30;99.90
2002;DHT22;1003;48.002;7.788;2024-01-10T01:15:30;-3.30;99.90
2002;DHT22;1003;48.002;7.788;2024-01-10T01:17:58;-3.30;99.90
2002;DHT22;1003;48.002;7.788;2024-01-10T01:20:25;-3.30;99.90
2002;DHT22;1003;48.002;7.788;2024-01-10T01:22:52;-3.30;99.90
2002;DHT22;1003;48.002;7.788;2024-01-10T01:25:19;-3.30;99.90
2002;DHT22;1003;48.002;7.788;2024-01-10T01:27:46;-3.30;99.90
2002;DHT22;1003;48.002;7.788;2024-01-10T01:30:13;-3.30;99.90
2002;DHT22;1003;48.002;7.788;2024-01-10T01:32:40;-3.30;99.90
2002;DHT22;1003;48.002;7.788;2024-01-10T01:35:08;-3.30;99.90
2002;DHT22;1003;48.002;7.788;2024-01-10T01:37:35;-3.30;99.90
2002;DHT22;1003;48.002;7.788;2024-01-10T01:40:02;-3.30;99.90
2002;DHT22;1003;48.002;7.788;2024-01-10T01:42:29;-3.30;99.90
2002;DHT22;1003;48.002;7.788;2024-01-10T01:44:57;-3.30;99.90
2002;DHT22;1003;48.002;7.788;2024-01-10T01:47:24;-3.20;99.90
2002;DHT22;1003;48.002;7.788;2024-01-10T01:49:52;-3.30;99.90
2002;DHT22;1003;48.002;7.788;2024-01-10T01:52:21;-3.30;99.90
2002;DHT22;1003;48.002;7.788;2024-01-10T01:54:48;-3.30;99.90
2002;DHT22;1003;48.002;7.788;2024-01-10T01:57:15;-3.30;99.90
2002;DHT22;1003;48.002;7.788;2024-01-10T01:59:42;-3.30;99.90
2002;DHT22;1003;48.002;7.788;2024-01-10T02:02:09;-3.30;99.90
2002;DHT22;1003;48.002;7.788;2024-01-10T02:04:39;-3.30;99.90
2002;DHT22;1003;48.002;7.788;2024-01-10T02:07:07;-3.30;99.90
2002;DHT22;1003;48.002;7.788;2024-01-10T02:09:35;-3.30;99.90
2002;DHT22;1003;48.002;7.788;2024-01-10T02:12:03;-3.40;99.90
2002;DHT22;1003;48.002;7.788;2024-01-10T02:14:31;-3.40;99.90
2002;DHT22;1003;48.002;7.788;2024-01-10T02:16:57;-3.50;99.90
2002;DHT22;1003;48.002;7.788;2024-01-10T02:19:24;-3.50;99.90
2002;DHT22;1003;48.002;7.788;2024-01-10T02:21:52;-3.50;99.90
2002;DHT22;1003;48.002;7.788;2024-01-10T02:24:19;-3.50;99.90
2002;DHT22;1003;48.002;7.788;2024-01-10T02:26:47;-3.50;99.90
2002;DHT22;1003;48.002;7.788;2024-01-10T02:29:15;-3.40;99.90
2002;DHT22;1003;48.002;7.788;2024-01-10T02:31:42;-3.30;99.90
2002;DHT22;1003;48.002;7.788;2024-01-10T02:34:09;-3.20;99.90
2002;DHT22;1003;48.002;7.788;2024-01-10T02:36:36;-3.10;99.90
2002;DHT22;1003;48.002;7.788;2024-01-10T02:39:03;-3.10;99.90
2002;DHT22;1003;48.002;7.788;2024-01-10T02:41:30;-3.00;99.90
2002;DHT22;1003;48.002;7.788;2024-01-10T02:43:58;-3.00;99.90
2002;DHT22;1003;48.002;7.788;2024-01-10T02:46:25;-3.00;99.90
2002;DHT22;1003;48.002;7.788;2024-01-10T02:48:54;-3.00;99.90
2002;DHT22;1003;48.002;7.788;2024-01-10T02:51:21;-3.00;99.90
2002;DHT22;1003;48.002;7.788;2024-01-10T02:53:48;-2.90;99.90
2002;DHT22;1003;48.002;7.788;2024-01-10T02:56:15;-2.90;99.90
2002;DHT22;1003;48.002;7.788;2024-01-10T02:58:42;-3.00;99.90
2002;DHT22;1003;48.002;7.788;2024-01-10T03:01:10;-3.10;99.90
2002;DHT22;1003;48.002;7.788;2024-01-10T03:03:37;-3.00;99.90
2002;DHT22;1003;48.002;7.788;2024-01-10T03:06:04;-2.90;99.90
2002;DHT22;1003;48.002;7.788;2024-01-10T03:08:31;-2.90;99.90
2002;DHT22;1003;48.002;7.788;2024-01-10T03:10:58;-3.00;99.90
2002;DHT22;1003;48.002;7.788;2024-01-10T03:13:26;-3.20;99.90
2002;DHT22;1003;48.002;7.788;2024-01-10T03:15:52;-3.10;99.90
2002;DHT22;1003;48.002;7.788;2024-01-10T03:18:21;-3.40;99.90
2002;DHT22;1003;48.002;7.788;2024-01-10T03:20:47;-3.50;99.90
2002;DHT22;1003;48.002;7.788;2024-01-10T03:23:14;-3.50;99.90
2002;DHT22;1003;48.002;7.788;2024-01-10T03:25:41;-3.60;99.90
2002;DHT22;1003;48.002;7.788;2024-01-10T03:28:08;-3.70;99.90
2002;DHT22;1003;48.002;7.788;2024-01-10T03:30:35;-3.80;99.90
2002;DHT22;1003;48.002;7.788;2024-01-10T03:33:02;-3.90;99.90
2002;DHT22;1003;48.002;7.788;2024-01-10T03:35:30;-3.90;99.90
2002;DHT22;1003;48.002;7.788;2024-01-10T03:37:57;-3.80;99.90
2002;DHT22;1003;48.002;7.788;2024-01-10T03:40:24;-3.80;99.90
2002;DHT22;1003;48.002;7.788;2024-01-10T03:42:51;-3.80;99.90
2002;DHT22;1003;48.002;7.788;2024-01-10T03:45:18;-3.80;99.90
2002;DHT22;1003;48.002;7.788;2024-01-10T03:47:48;-3.70;99.90
2002;DHT22;1003;48.002;7.788;2024-01-10T03:50:17;-3.70;99.90
2002;DHT22;1003;48.002;7.788;2024-01-10T03:52:46;-3.70;99.90
2002;DHT22;1003;48.002;7.788;2024-01-10T03:55:13;-3.80;99.90
2002;DHT22;1003;48.002;7.788;2024-01-10T03:57:40;-3.80;99.90
2002;DHT22;1003;48.002;7.788;2024-01-10T04:00:08;-3.80;99.90
2002;DHT22;1003;48.002;7.788;2024-01-10T04:02:36;-3.70;99.90
2002;DHT22;1003;48.002;7.788;2024-01-10T04:05:07;-3.70;99.90
2002;DHT22;1003;48.002;7.788;2024-01-10T04:07:36;-3.60;99.90
2002;DHT22;1003;48.002;7.788;2024-01-10T04:10:05;-3.40;99.90
2002;DHT22;1003;48.002;7.788;2024-01-10T04:12:35;-3.40;99.90
2002;DHT22;1003;48.002;7.788;2024-01-10T04:15:03;-3.40;99.90
2002;DHT22;1003;48.002;7.788;2024-01-10T04:17:31;-3.30;99.90
2002;DHT22;1003;48.002;7.788;2024-01-10T04:19:58;-3.30;99.90
2002;DHT22;1003;48.002;7.788;2024-01-10T04:22:25;-3.20;99.90
2002;DHT22;1003;48.002;7.788;2024-01-10T04:24:52;-3.30;99.90
2002;DHT22;1003;48.002;7.788;2024-01-10T04:27:20;-3.30;99.90
2002;DHT22;1003;48.002;7.788;2024-01-10T04:29:47;-3.30;99.90
2002;DHT22;1003;48.002;7.788;2024-01-10T04:32:14;-3.30;99.90
2002;DHT22;1003;48.002;7.788;2024-01-10T04:34:41;-3.40;99.90
2002;DHT22;1003;48.002;7.788;2024-01-10T04:37:08;-3.50;99.90
2002;DHT22;1003;48.002;7.788;2024-01-10T04:39:35;-3.50;99.90
2002;DHT22;1003;48.002;7.788;2024-01-10T04:42:04;-3.50;99.90
2002;DHT22;1003;48.002;7.788;2024-01-10T04:44:32;-3.60;99.90
2002;DHT22;1003;48.002;7.788;2024-01-10T04:46:59;-3.60;99.90
2002;DHT22;1003;48.002;7.788;2024-01-10T04:49:26;-3.60;99.90
2002;DHT22;1003;48.002;7.788;2024-01-10T04:51:53;-3.60;99.90
2002;DHT22;1003;48.002;7.788;2024-01-10T04:54:20;-3.60;99.90
2002;DHT22;1003;48.002;7.788;2024-01-10T04:56:47;-3.60;99.90
2002;DHT22;1003;48.002;7.788;2024-01-10T04:59:14;-3.60;99.90
2002;DHT22;1003;48.002;7.788;2024-01-10T05:01:43;-3.60;99.90
2002;DHT22;1003;48.002;7.788;2024-01-10T05:04:10;-3.60;99.90
2002;DHT22;1003;48.002;7.788;2024-01-10T05:06:36;-3.50;99.90
2002;DHT22;1003;48.002;7.788;2024-01-10T05:09:03;-3.50;99.90
2002;DHT22;1003;48.002;7.788;2024-01-10T05:11:32;-3.50;99.90
2002;DHT22;1003;48.002;7.788;2024-01-10T05:14:01;-3.40;99.90
2002;DHT22;1003;48.002;7.788;2024-01-10T05:16:28;-3.40;99.90
2002;DHT22;1003;48.002;7.788;2024-01-10T05:18:57;-3.40;99.90
2002;DHT22;1003;48.002;7.788;2024-01-10T05:21:28;-3.40;99.90
2002;DHT22;1003;48.002;7.788;2024-01-10T05:23:55;-3.30;99.90
2002;DHT22;1003;48.002;7.788;2024-01-10T05:26:23;-3.30;99.90
2002;DHT22;1003;48.002;7.788;2024-01-10T05:28:50;-3.20;99.90
2002;DHT22;1003;48.002;7.788;2024-01-10T05:31:17;-3.20;99.90
2002;DHT22;1003;48.002;7.788;2024-01-10T05:33:43;-3.20;99.90
2002;DHT22;1003;48.002;7.788;2024-01-10T05:36:12;-3.30;99.90
2002;DHT22;1003;48.002;7.788;2024-01-10T05:38:39;-3.30;99.90
2002;DHT22;1003;48.002;7.788;2024-01-10T05:41:06;-3.30;99.90
2002;DHT22;1003;48.002;7.788;2024-01-10T05:43:33;-3.30;99.90
2002;DHT22;1003;48.002;7.788;2024-01-10T05:46:00;-3.20;99.90
2002;DHT22;1003;48.002;7.788;2024-01-10T05:48:29;-3.20;99.90
2002;DHT22;1003;48.002;7.788;2024-01-10T05:50:57;-3.20;99.90
2002;DHT22;1003;48.002;7.788;2024-01-10T05:53:25;-3.10;99.90
2002;DHT22;1003;48.002;7.788;2024-01-10T05:55:52;-3.10;99.90
2002;DHT22;1003;48.002;7.788;2024-01-10T05:58:19;-3.10;99.90
2002;DHT22;1003;48.002;7.788;2024-01-10T06:00:46;-3.10;99.90
2002;DHT22;1003;48.002;7.788;2024-01-10T06:03:13;-3.00;99.90
2002;DHT22;1003;48.002;7.788;2024-01-10T06:05:40;-3.00;99.90
2002;DHT22;1003;48.002;7.788;2024-01-10T06:08:08;-3.00;99.90
2002;DHT22;1003;48.002;7.788;2024-01-10T06:10:36;-3.00;99.90
2002;DHT22;1003;48.002;7.788;2024-01-10T06:13:03;-3.10;99.90
2002;DHT22;1003;48.002;7.788;2024-01-10T06:15:30;-3.10;99.90
2002;DHT22;1003;48.002;7.788;2024-01-10T06:17:57;-3.10;99.90
2002;DHT22;1003;48.002;7.788;2024-01-10T06:20:24;-3.10;99.90
2002;DHT22;1003;48.002;7.788;2024-01-10T06:22:52;-3.20;99.90
2002;DHT22;1003;48.002;7.788;2024-01-10T06:25:22;-3.10;99.90
2002;DHT22;1003;48.002;7.788;2024-01-10T06:27:50;-3.10;99.90
2002;DHT22;1003;48.002;7.788;2024-01-10T06:30:17;-3.10;99.90
2002;DHT22;1003;48.002;7.788;2024-01-10T06:32:44;-3.20;99.90
2002;DHT22;1003;48.002;7.788;2024-01-10T06:35:11;-3.20;99.90
2002;DHT22;1003;48.002;7.788;2024-01-10T06:37:38;-3.20;99.90
2002;DHT22;1003;48.002;7.788;2024-01-10T06:40:06;-3.20;99.90
2002;DHT22;1003;48.002;7.788;2024-01-10T06:42:34;-3.20;99.90
2002;DHT22;1003;48.002;7.788;2024-01-10T06:45:03;-3.20;99.90
2002;DHT22;1003;48.002;7.788;2024-01-10T06:47:32;-3.20;99.90
2002;DHT22;1003;48.002;7.788;2024-01-10T06:49:59;-2.90;99.90
2002;DHT22;1003;48.002;7.788;2024-01-10T06:52:26;-3.00;99.90
2002;DHT22;1003;48.002;7.788;2024-01-10T06:54:53;-2.90;99.90
2002;DHT22;1003;48.002;7.788;2024-01-10T06:57:20;-3.00;99.90
2002;DHT22;1003;48.002;7.788;2024-01-10T06:59:46;-2.90;99.90
2002;DHT22;1003;48.002;7.788;2024-01-10T07:02:15;-2.80;99.90
2002;DHT22;1003;48.002;7.788;2024-01-10T07:04:42;-2.80;99.90
2002;DHT22;1003;48.002;7.788;2024-01-10T07:07:09;-2.80;99.90
2002;DHT22;1003;48.002;7.788;2024-01-10T07:09:37;-2.80;99.90
2002;DHT22;1003;48.002;7.788;2024-01-10T07:12:06;-2.90;99.90
2002;DHT22;1003;48.002;7.788;2024-01-10T07:14:33;-2.80;99.90
2002;DHT22;1003;48.002;7.788;2024-01-10T07:17:00;-2.80;99.90
2002;DHT22;1003;48.002;7.788;2024-01-10T07:19:28;-2.80;99.90
2002;DHT22;1003;48.002;7.788;2024-01-10T07:21:56;-2.80;99.90
2002;DHT22;1003;48.002;7.788;2024-01-10T07:24:23;-2.80;99.90
2002;DHT22;1003;48.002;7.788;2024-01-10T07:26:50;-2.90;99.90
2002;DHT22;1003;48.002;7.788;2024-01-10T07:29:17;-2.90;99.90
2002;DHT22;1003;48.002;7.788;2024-01-10T07:31:44;-2.90;99.90
2002;DHT22;1003;48.002;7.788;2024-01-10T07:34:11;-2.80;99.90
2002;DHT22;1003;48.002;7.788;2024-01-10T07:36:43;-2.70;99.90
2002;DHT22;1003;48.002;7.788;2024-01-10T07:39:11;-2.70;99.90
2002;DHT22;1003;48.002;7.788;2024-01-10T07:41:41;-2.70;99.90
2002;DHT22;1003;48.002;7.788;2024-01-10T07:44:08;-2.70;99.90
2002;DHT22;1003;48.002;7.788;2024-01-10T07:46:35;-2.80;99.90
2002;DHT22;1003;48.002;7.788;2024-01-10T07:49:03;-2.80;99.90
2002;DHT22;1003;48.002;7.788;2024-01-10T07:51:30;-2.80;99.90
2002;DHT22;1003;48.002;7.788;2024-01-10T07:53:59;-2.70;99.90
2002;DHT22;1003;48.002;7.788;2024-01-10T07:56:26;-2.60;99.90
2002;DHT22;1003;48.002;7.788;2024-01-10T07:58:53;-2.60;99.90
2002;DHT22;1003;48.002;7.788;2024-01-10T08:01:22;-2.60;99.90
2002;DHT22;1003;48.002;7.788;2024-01-10T08:03:50;-2.40;99.90
2002;DHT22;1003;48.002;7.788;2024-01-10T08:06:17;-2.50;99.90
2002;DHT22;1003;48.002;7.788;2024-01-10T08:08:44;-2.40;99.90
2002;DHT22;1003;48.002;7.788;2024-01-10T08:11:12;-2.50;99.90
2002;DHT22;1003;48.002;7.788;2024-01-10T08:13:39;-2.40;99.90
2002;DHT22;1003;48.002;7.788;2024-01-10T08:16:06;-2.40;99.90
2002;DHT22;1003;48.002;7.788;2024-01-10T08:18:34;-2.50;99.90
2002;DHT22;1003;48.002;7.788;2024-01-10T08:21:01;-2.50;99.90
2002;DHT22;1003;48.002;7.788;2024-01-10T08:23:29;-2.60;99.90
2002;DHT22;1003;48.002;7.788;2024-01-10T08:25:57;-2.60;99.90
2002;DHT22;1003;48.002;7.788;2024-01-10T08:28:25;-2.50;99.90
2002;DHT22;1003;48.002;7.788;2024-01-10T08:30:53;-2.50;99.90
2002;DHT22;1003;48.002;7.788;2024-01-10T08:33:20;-2.40;99.90
2002;DHT22;1003;48.002;7.788;2024-01-10T08:35:47;-2.40;99.90
2002;DHT22;1003;48.002;7.788;2024-01-10T08:38:13;-2.40;99.90
2002;DHT22;1003;48.002;7.788;2024-01-10T08:40:40;-2.40;99.90
2002;DHT22;1003;48.002;7.788;2024-01-10T08:43:07;-2.40;99.90
2002;DHT22;1003;48.002;7.788;2024-01-10T08:45:36;-2.50;99.90
2002;DHT22;1003;48.002;7.788;2024-01-10T08:48:03;-2.40;99.90
2002;DHT22;1003;48.002;7.788;2024-01-10T08:50:32;-2.40;99.90
2002;DHT22;1003;48.002;7.788;2024-01-10T08:52:59;-2.40;99.90
2002;DHT22;1003;48.002;7.788;2024-01-10T08:55:29;-2.30;99.90
2002;DHT22;1003;48.002;7.788;2024-01-10T08:57:56;-2.30;99.90
2002;DHT22;1003;48.002;7.788;2024-01-10T09:00:23;-2.40;99.90
2002;DHT22;1003;48.002;7.788;2024-01-10T09:02:52;-2.30;99.90
2002;DHT22;1003;48.002;7.788;2024-01-10T09:05:19;-2.30;99.90
2002;DHT22;1003;48.002;7.788;2024-01-10T09:07:47;-2.20;99.90
2002;DHT22;1003;48.002;7.788;2024-01-10T09:10:16;-2.20;99.90
2002;DHT22;1003;48.002;7.788;2024-01-10T09:12:43;-2.30;99.90
2002;DHT22;1003;48.002;7.788;2024-01-10T09:15:12;-2.20;99.90
2002;DHT22;1003;48.002;7.788;2024-01-10T09:17:40;-2.30;99.90
2002;DHT22;1003;48.002;7.788;2024-01-10T09:20:09;-2.20;99.90
2002;DHT22;1003;48.002;7.788;2024-01-10T09:22:37;-2.20;99.90
2002;DHT22;1003;48.002;7.788;2024-01-10T09:25:05;-2.00;99.90
2002;DHT22;1003;48.002;7.788;2024-01-10T09:27:33;-2.10;99.90
2002;DHT22;1003;48.002;7.788;2024-01-10T09:30:03;-2.10;99.90
2002;DHT22;1003;48.002;7.788;2024-01-10T09:32:36;-2.10;99.90
2002;DHT22;1003;48.002;7.788;2024-01-10T09:35:10;-2.00;99.90
2002;DHT22;1003;48.002;7.788;2024-01-10T09:37:39;-1.90;99.90
2002;DHT22;1003;48.002;7.788;2024-01-10T09:40:09;-1.80;99.90
2002;DHT22;1003;48.002;7.788;2024-01-10T09:42:41;-1.70;99.90
2002;DHT22;1003;48.002;7.788;2024-01-10T09:45:11;-1.50;99.90
2002;DHT22;1003;48.002;7.788;2024-01-10T09:47:40;-1.20;99.90
2002;DHT22;1003;48.002;7.788;2024-01-10T09:50:17;-1.50;99.90
2002;DHT22;1003;48.002;7.788;2024-01-10T09:52:52;-1.10;99.90
2002;DHT22;1003;48.002;7.788;2024-01-10T09:55:22;-1.20;99.90
2002;DHT22;1003;48.002;7.788;2024-01-10T09:57:52;-1.50;99.90
2002;DHT22;1003;48.002;7.788;2024-01-10T10:00:20;-1.50;99.90
2002;DHT22;1003;48.002;7.788;2024-01-10T10:02:51;-1.30;99.90
2002;DHT22;1003;48.002;7.788;2024-01-10T10:05:26;-1.40;99.90
2002;DHT22;1003;48.002;7.788;2024-01-10T10:07:54;-1.50;99.90
2002;DHT22;1003;48.002;7.788;2024-01-10T10:10:21;-1.40;99.90
2002;DHT22;1003;48.002;7.788;2024-01-10T10:12:49;-1.40;99.90
2002;DHT22;1003;48.002;7.788;2024-01-10T10:15:19;-1.30;99.90
2002;DHT22;1003;48.002;7.788;2024-01-10T10:17:48;-1.30;99.90
2002;DHT22;1003;48.002;7.788;2024-01-10T10:20:20;-1.40;99.90
2002;DHT22;1003;48.002;7.788;2024-01-10T10:23:00;-1.40;99.90
2002;DHT22;1003;48.002;7.788;2024-01-10T10:25:30;-1.50;99.90
2002;DHT22;1003;48.002;7.788;2024-01-10T10:27:58;-1.70;99.90
2002;DHT22;1003;48.002;7.788;2024-01-10T10:30:26;-1.50;99.90
2002;DHT22;1003;48.002;7.788;2024-01-10T10:32:54;-1.50;99.90
2002;DHT22;1003;48.002;7.788;2024-01-10T10:35:22;-1.50;99.90
2002;DHT22;1003;48.002;7.788;2024-01-10T10:37:49;-1.60;99.90
2002;DHT22;1003;48.002;7.788;2024-01-10T10:40:19;-1.50;99.90
2002;DHT22;1003;48.002;7.788;2024-01-10T10:42:49;-1.70;99.90
2002;DHT22;1003;48.002;7.788;2024-01-10T10:45:22;-1.70;99.90
2002;DHT22;1003;48.002;7.788;2024-01-10T10:47:56;-1.70;99.90
2002;DHT22;1003;48.002;7.788;2024-01-10T10:50:28;-1.40;99.90
2002;DHT22;1003;48.002;7.788;2024-01-10T10:53:03;-1.40;99.90
2002;DHT22;1003;48.002;7.788;2024-01-10T10:55:32;-1.30;99.90
2002;DHT22;1003;48.002;7.788;2024-01-10T10:58:02;-1.40;99.90
2002;DHT22;1003;48.002;7.788;2024-01-10T11:00:31;-1.40;99.90
2002;DHT22;1003;48.002;7.788;2024-01-10T11:03:00;-1.30;99.90
2002;DHT22;1003;48.002;7.788;2024-01-10T11:05:28;-1.20;99.90
2002;DHT22;1003;48.002;7.788;2024-01-10T11:07:58;-0.80;99.90
2002;DHT22;1003;48.002;7.788;2024-01-10T11:10:33;-1.00;99.90
2002;DHT22;1003;48.002;7.788;2024-01-10T11:13:19;-1.00;99.90
2002;DHT22;1003;48.002;7.788;2024-01-10T11:16:28;-0.90;99.90
2002;DHT22;1003;48.002;7.788;2024-01-10T11:19:20;-0.70;99.90
2002;DHT22;1003;48.002;7.788;2024-01-10T11:22:15;-0.50;99.90
2002;DHT22;1003;48.002;7.788;2024-01-10T11:24:54;-0.20;99.90
2002;DHT22;1003;48.002;7.788;2024-01-10T11:27:22;-0.50;99.90
2002;DHT22;1003;48.002;7.788;2024-01-10T11:29:50;-0.70;99.90
2002;DHT22;1003;48.002;7.788;2024-01-10T11:32:18;-0.70;99.90
2002;DHT22;1003;48.002;7.788;2024-01-10T11:34:54;-0.40;99.90
2002;DHT22;1003;48.002;7.788;2024-01-10T11:37:21;-0.20;99.90
2002;DHT22;1003;48.002;7.788;2024-01-10T11:39:50;-0.30;99.90
2002;DHT22;1003;48.002;7.788;2024-01-10T11:42:23;-0.30;99.90
2002;DHT22;1003;48.002;7.788;2024-01-10T11:44:51;-0.20;99.90
2002;DHT22;1003;48.002;7.788;2024-01-10T11:47:19;-0.30;99.90
2002;DHT22;1003;48.002;7.788;2024-01-10T11:49:56;-0.40;99.90
2002;DHT22;1003;48.002;7.788;2024-01-10T11:52:32;-0.20;99.90
2002;DHT22;1003;48.002;7.788;2024-01-10T11:55:00;-0.40;99.90
2002;DHT22;1003;48.002;7.788;2024-01-10T11:57:29;-0.20;99.90
2002;DHT22;1003;48.002;7.788;2024-01-10T11:59:58;-0.40;99.90
2002;DHT22;1003;48.002;7.788;2024-01-10T12:02:27;-0.20;99.90
2002;DHT22;1003;48.002;7.788;2024-01-10T12:04:56;0.10;99.90
2002;DHT22;1003;48.002;7.788;2024-01-10T12:07:22;0.20;99.90
2002;DHT22;1003;48.002;7.788;2024-01-10T12:09:50;0.00;99.90
2002;DHT22;1003;48.002;7.788;2024-01-10T12:12:17;0.10;99.90
2002;DHT22;1003;48.002;7.788;2024-01-10T12:14:46;-0.10;99.90
2002;DHT22;1003;48.002;7.788;2024-01-10T12:17:13;-0.20;99.90
2002;DHT22;1003;48.002;7.788;2024-01-10T12:19:40;0.00;99.90
2002;DHT22;1003;48.002;7.788;2024-01-10T12:22:10;-0.30;99.90
2002;DHT22;1003;48.002;7.788;2024-01-10T12:24:43;-0.10;99.90
2002;DHT22;1003;48.002;7.788;2024-01-10T12:27:11;-0.20;99.90
2002;DHT22;1003;48.002;7.788;2024-01-10T12:29:38;0.10;99.90
2002;DHT22;1003;48.002;7.788;2024-01-10T12:32:08;0.30;99.90
2002;DHT22;1003;48.002;7.788;2024-01-10T12:34:38;0.30;99.90
2002;DHT22;1003;48.002;7.788;2024-01-10T12:37:05;0.30;99.90
2002;DHT22;1003;48.002;7.788;2024-01-10T12:39:32;-0.20;99.90
2002;DHT22;1003;48.002;7.788;2024-01-10T12:42:01;0.00;99.90
2002;DHT22;1003;48.002;7.788;2024-01-10T12:44:36;0.20;99.90
2002;DHT22;1003;48.002;7.788;2024-01-10T12:47:03;0.10;99.90
2002;DHT22;1003;48.002;7.788;2024-01-10T12:49:31;-0.20;99.90
2002;DHT22;1003;48.002;7.788;2024-01-10T12:51:58;-0.30;99.90
2002;DHT22;1003;48.002;7.788;2024-01-10T12:54:25;-0.10;99.90
2002;DHT22;1003;48.002;7.788;2024-01-10T12:56:52;-0.40;99.90
2002;DHT22;1003;48.002;7.788;2024-01-10T12:59:19;-0.30;99.90
2002;DHT22;1003;48.002;7.788;2024-01-10T13:01:46;-0.30;99.90
2002;DHT22;1003;48.002;7.788;2024-01-10T13:04:13;-0.20;99.90
2002;DHT22;1003;48.002;7.788;2024-01-10T13:06:41;-0.20;99.90
2002;DHT22;1003;48.002;7.788;2024-01-10T13:09:08;-0.10;99.90
2002;DHT22;1003;48.002;7.788;2024-01-10T13:11:36;0.00;99.90
2002;DHT22;1003;48.002;7.788;2024-01-10T13:14:03;0.00;99.90
2002;DHT22;1003;48.002;7.788;2024-01-10T13:16:30;-0.20;99.90
2002;DHT22;1003;48.002;7.788;2024-01-10T13:18:57;-0.50;99.90
2002;DHT22;1003;48.002;7.788;2024-01-10T13:21:24;-0.50;99.90
2002;DHT22;1003;48.002;7.788;2024-01-10T13:23:53;-0.30;99.90
2002;DHT22;1003;48.002;7.788;2024-01-10T13:26:20;-0.40;99.90
2002;DHT22;1003;48.002;7.788;2024-01-10T13:28:47;-0.60;99.90
2002;DHT22;1003;48.002;7.788;2024-01-10T13:31:14;-0.50;99.90
2002;DHT22;1003;48.002;7.788;2024-01-10T13:33:41;-0.60;99.90
2002;DHT22;1003;48.002;7.788;2024-01-10T13:36:08;-0.50;99.90
2002;DHT22;1003;48.002;7.788;2024-01-10T13:38:35;-0.20;99.90
2002;DHT22;1003;48.002;7.788;2024-01-10T13:41:04;-0.20;99.90
2002;DHT22;1003;48.002;7.788;2024-01-10T13:43:31;0.00;99.90
2002;DHT22;1003;48.002;7.788;2024-01-10T13:45:58;-0.10;99.90
2002;DHT22;1003;48.002;7.788;2024-01-10T13:48:26;0.10;99.90
2002;DHT22;1003;48.002;7.788;2024-01-10T13:50:54;0.20;99.90
2002;DHT22;1003;48.002;7.788;2024-01-10T13:53:20;0.00;99.90
2002;DHT22;1003;48.002;7.788;2024-01-10T13:55:48;-0.20;99.90
2002;DHT22;1003;48.002;7.788;2024-01-10T13:58:17;0.10;99.90
2002;DHT22;1003;48.002;7.788;2024-01-10T14:00:44;0.00;99.90
2002;DHT22;1003;48.002;7.788;2024-01-10T14:03:12;0.30;99.90
2002;DHT22;1003;48.002;7.788;2024-01-10T14:05:39;0.00;99.90
2002;DHT22;1003;48.002;7.788;2024-01-10T14:08:06;0.00;99.90
2002;DHT22;1003;48.002;7.788;2024-01-10T14:10:34;0.20;99.90
2002;DHT22;1003;48.002;7.788;2024-01-10T14:13:01;0.10;99.90
2002;DHT22;1003;48.002;7.788;2024-01-10T14:15:30;0.20;99.90
2002;DHT22;1003;48.002;7.788;2024-01-10T14:17:57;0.10;99.90
2002;DHT22;1003;48.002;7.788;2024-01-10T14:20:24;0.20;99.90
2002;DHT22;1003;48.002;7.788;2024-01-10T14:22:51;0.20;99.90
2002;DHT22;1003;48.002;7.788;2024-01-10T14:25:18;0.40;99.90
2002;DHT22;1003;48.002;7.788;2024-01-10T14:27:46;0.70;99.90
2002;DHT22;1003;48.002;7.788;2024-01-10T14:30:13;1.10;99.90
2002;DHT22;1003;48.002;7.788;2024-01-10T14:32:42;1.50;99.90
2002;DHT22;1003;48.002;7.788;2024-01-10T14:35:13;1.80;99.90
2002;DHT22;1003;48.002;7.788;2024-01-10T14:37:39;1.40;99.90
2002;DHT22;1003;48.002;7.788;2024-01-10T14:40:07;1.30;99.90
2002;DHT22;1003;48.002;7.788;2024-01-10T14:42:36;1.30;99.90
2002;DHT22;1003;48.002;7.788;2024-01-10T14:45:03;1.20;99.90
2002;DHT22;1003;48.002;7.788;2024-01-10T14:47:31;1.30;99.90
2002;DHT22;1003;48.002;7.788;2024-01-10T14:49:59;0.60;99.90
2002;DHT22;1003;48.002;7.788;2024-01-10T14:52:26;0.40;99.90
2002;DHT22;1003;48.002;7.788;2024-01-10T14:54:53;0.50;99.90
2002;DHT22;1003;48.002;7.788;2024-01-10T14:57:20;0.40;99.90
2002;DHT22;1003;48.002;7.788;2024-01-10T14:59:47;-0.10;99.90
2002;DHT22;1003;48.002;7.788;2024-01-10T15:02:14;0.10;99.90
2002;DHT22;1003;48.002;7.788;2024-01-10T15:04:44;0.00;99.90
2002;DHT22;1003;48.002;7.788;2024-01-10T15:07:12;-0.20;99.90
2002;DHT22;1003;48.002;7.788;2024-01-10T15:09:42;-0.30;99.90
2002;DHT22;1003;48.002;7.788;2024-01-10T15:12:09;-0.40;99.90
2002;DHT22;1003;48.002;7.788;2024-01-10T15:14:37;-0.40;99.90
2002;DHT22;1003;48.002;7.788;2024-01-10T15:17:04;-0.80;99.90
2002;DHT22;1003;48.002;7.788;2024-01-10T15:19:33;-0.80;99.90
2002;DHT22;1003;48.002;7.788;2024-01-10T15:22:00;-1.00;99.90
2002;DHT22;1003;48.002;7.788;2024-01-10T15:24:29;-1.00;99.90
2002;DHT22;1003;48.002;7.788;2024-01-10T15:26:56;-1.10;99.90
2002;DHT22;1003;48.002;7.788;2024-01-10T15:29:27;-1.20;99.90
2002;DHT22;1003;48.002;7.788;2024-01-10T15:31:54;-1.30;99.90
2002;DHT22;1003;48.002;7.788;2024-01-10T15:34:21;-1.40;99.90
2002;DHT22;1003;48.002;7.788;2024-01-10T15:36:50;-1.40;99.90
2002;DHT22;1003;48.002;7.788;2024-01-10T15:39:16;-1.40;99.90
2002;DHT22;1003;48.002;7.788;2024-01-10T15:41:46;-1.50;99.90
2002;DHT22;1003;48.002;7.788;2024-01-10T15:44:14;-1.50;99.90
2002;DHT22;1003;48.002;7.788;2024-01-10T15:46:41;-1.60;99.90
2002;DHT22;1003;48.002;7.788;2024-01-10T15:49:08;-1.70;99.90
2002;DHT22;1003;48.002;7.788;2024-01-10T15:51:35;-1.70;99.90
2002;DHT22;1003;48.002;7.788;2024-01-10T15:54:02;-1.80;99.90
2002;DHT22;1003;48.002;7.788;2024-01-10T15:56:29;-1.90;99.90
2002;DHT22;1003;48.002;7.788;2024-01-10T15:58:58;-2.00;99.90
2002;DHT22;1003;48.002;7.788;2024-01-10T16:01:25;-2.00;99.90
2002;DHT22;1003;48.002;7.788;2024-01-10T16:03:52;-2.00;99.90
2002;DHT22;1003;48.002;7.788;2024-01-10T16:06:19;-2.10;99.90
2002;DHT22;1003;48.002;7.788;2024-01-10T16:08:46;-2.20;99.90
2002;DHT22;1003;48.002;7.788;2024-01-10T16:11:13;-2.30;99.90